Time;durP1;ratioP1;P1;durP2;ratioP2;P2;SDS_P1;SDS_P2;PMS_P1;PMS_P2;Temp;Humidity;BMP_temperature;BMP_pressure;BME280_temperature;BME280_humidity;BME280_pressure;Samples;Min_cycle;Max_cycle;Signal;HPM_P1;HPM_P2
2023/05/19 00:01:15;;;;;;;3.60;1.20;;;;;;;;;;4947728;28;98539;-81
2023/05/19 00:03:52;;;;;;;3.08;1.20;;;;;;;;;;4947741;28;99810;-83
2023/05/19 00:06:23;;;;;;;2.08;1.20;;;;;;;;;;4947576;28;99706;-83
2023/05/19 00:08:55;;;;;;;2.35;1.30;;;;;;;;;;4946758;28;98524;-81
2023/05/19 00:11:22;;;;;;;3.03;1.25;;;;;;;;;;4947568;28;100310;-82
2023/05/19 00:13:49;;;;;;;3.05;1.10;;;;;;;;;;4947235;28;99641;-82
2023/05/19 00:16:16;;;;;;;2.85;1.20;;;;;;;;;;4947348;28;98575;-82
2023/05/19 00:18:43;;;;;;;3.15;1.30;;;;;;;;;;4948519;28;100371;-83
2023/05/19 00:21:10;;;;;;;2.80;1.45;;;;;;;;;;4947769;28;98560;-81
2023/05/19 00:23:36;;;;;;;3.17;1.20;;;;;;;;;;4940140;28;98526;-81
2023/05/19 00:26:03;;;;;;;2.22;1.33;;;;;;;;;;4946859;28;100548;-81
2023/05/19 00:28:29;;;;;;;3.58;1.30;;;;;;;;;;4944906;28;98586;-81
2023/05/19 00:30:55;;;;;;;2.97;1.30;;;;;;;;;;4948262;28;99823;-81
2023/05/19 00:33:22;;;;;;;3.80;1.48;;;;;;;;;;4946964;28;99052;-82
2023/05/19 00:35:49;;;;;;;4.22;1.50;;;;;;;;;;4950055;28;98403;-82
2023/05/19 00:38:16;;;;;;;3.22;1.25;;;;;;;;;;4946687;28;100691;-82
2023/05/19 00:40:42;;;;;;;3.30;1.30;;;;;;;;;;4949762;28;99263;-84
2023/05/19 00:43:09;;;;;;;3.90;1.40;;;;;;;;;;4947158;28;99368;-82
2023/05/19 00:45:35;;;;;;;3.72;1.27;;;;;;;;;;4939232;28;99319;-82
2023/05/19 00:48:03;;;;;;;1.60;1.20;;;;;;;;;;4950814;28;98536;-82
2023/05/19 00:50:30;;;;;;;3.63;1.20;;;;;;;;;;4946186;28;100219;-82
2023/05/19 00:52:57;;;;;;;2.45;1.20;;;;;;;;;;4945122;28;99511;-82
2023/05/19 00:55:25;;;;;;;3.17;1.30;;;;;;;;;;4945627;28;98616;-82
2023/05/19 00:57:52;;;;;;;4.25;1.40;;;;;;;;;;4944974;28;99911;-83
2023/05/19 01:00:19;;;;;;;3.05;1.40;;;;;;;;;;4946660;28;100676;-82
2023/05/19 01:02:45;;;;;;;3.08;1.17;;;;;;;;;;4949474;28;98601;-82
2023/05/19 01:05:12;;;;;;;2.60;1.33;;;;;;;;;;4942211;28;99198;-82
2023/05/19 01:07:40;;;;;;;2.22;1.20;;;;;;;;;;4947698;28;99827;-81
2023/05/19 01:10:07;;;;;;;3.22;1.50;;;;;;;;;;4960770;28;100593;-82
2023/05/19 01:12:34;;;;;;;3.35;1.40;;;;;;;;;;4948779;28;101614;-81
2023/05/19 01:15:01;;;;;;;3.33;1.33;;;;;;;;;;4944889;28;98626;-82
2023/05/19 01:17:33;;;;;;;2.15;1.40;;;;;;;;;;4946178;28;98934;-82
2023/05/19 01:20:05;;;;;;;3.17;1.40;;;;;;;;;;4935521;28;99580;-82
2023/05/19 01:22:41;;;;;;;2.60;1.30;;;;;;;;;;4935603;28;98945;-81
2023/05/19 01:25:19;;;;;;;2.63;1.30;;;;;;;;;;4949778;28;99751;-82
2023/05/19 01:28:08;;;;;;;3.20;1.30;;;;;;;;;;4945960;28;98480;-81
2023/05/19 01:30:40;;;;;;;2.45;1.30;;;;;;;;;;4941137;28;101347;-82
2023/05/19 01:33:10;;;;;;;3.15;1.30;;;;;;;;;;4943445;28;101340;-81
2023/05/19 01:35:41;;;;;;;2.30;1.30;;;;;;;;;;4944178;28;98593;-81
2023/05/19 01:38:09;;;;;;;3.00;1.25;;;;;;;;;;4947087;28;99199;-81
2023/05/19 01:40:36;;;;;;;2.10;1.25;;;;;;;;;;4944454;28;99139;-80
2023/05/19 01:43:02;;;;;;;;;;;;;;;;;;4947707;28;98601;-82
2023/05/19 01:45:31;;;;;;;2.35;1.25;;;;;;;;;;4950877;28;100508;-82
2023/05/19 01:47:59;;;;;;;2.78;1.30;;;;;;;;;;4947342;28;101898;-82
2023/05/19 01:50:26;;;;;;;2.38;1.30;;;;;;;;;;4945002;28;101620;-82
2023/05/19 01:52:52;;;;;;;2.88;1.30;;;;;;;;;;4942931;28;101826;-83
2023/05/19 01:55:21;;;;;;;2.22;1.15;;;;;;;;;;4946331;28;98963;-82
2023/05/19 01:58:15;;;;;;;2.53;1.23;;;;;;;;;;4943492;28;101639;-83
2023/05/19 02:00:44;;;;;;;2.45;1.30;;;;;;;;;;4941253;28;102048;-82
2023/05/19 02:03:23;;;;;;;3.58;1.30;;;;;;;;;;4944582;28;99098;-82
2023/05/19 02:06:13;;;;;;;2.08;1.17;;;;;;;;;;4945991;28;99967;-82
2023/05/19 02:08:55;;;;;;;2.50;1.40;;;;;;;;;;4935866;28;99215;-82
2023/05/19 02:11:27;;;;;;;3.58;1.40;;;;;;;;;;4951434;28;98730;-82
2023/05/19 02:13:55;;;;;;;4.35;1.42;;;;;;;;;;4957881;28;99309;-82
2023/05/19 02:16:24;;;;;;;2.40;1.33;;;;;;;;;;4965481;28;97909;-82
2023/05/19 02:18:52;;;;;;;3.60;1.30;;;;;;;;;;4968132;28;99913;-82
2023/05/19 02:21:19;;;;;;;2.50;1.30;;;;;;;;;;4969725;28;101888;-82
2023/05/19 02:23:46;;;;;;;3.38;1.42;;;;;;;;;;4961302;28;99791;-82
2023/05/19 02:26:13;;;;;;;3.97;1.40;;;;;;;;;;4974097;28;99791;-82
2023/05/19 02:28:39;;;;;;;5.22;1.60;;;;;;;;;;4952758;28;98962;-82
2023/05/19 02:31:07;;;;;;;2.78;1.40;;;;;;;;;;4951967;28;98630;-82
2023/05/19 02:33:35;;;;;;;3.45;1.40;;;;;;;;;;4946978;28;99659;-81
2023/05/19 02:36:01;;;;;;;2.58;1.20;;;;;;;;;;4945389;28;98573;-81
2023/05/19 02:38:28;;;;;;;3.28;1.20;;;;;;;;;;4945519;28;98633;-81
2023/05/19 02:40:56;;;;;;;2.65;1.20;;;;;;;;;;4945498;28;101379;-82
2023/05/19 02:43:23;;;;;;;4.28;1.40;;;;;;;;;;4949933;28;99475;-82
2023/05/19 02:45:49;;;;;;;2.97;1.45;;;;;;;;;;4965351;28;98932;-82
2023/05/19 02:48:16;;;;;;;3.35;1.40;;;;;;;;;;4965295;28;101557;-82
2023/05/19 02:50:42;;;;;;;3.90;1.40;;;;;;;;;;4962558;28;99242;-81
2023/05/19 02:53:09;;;;;;;3.75;1.40;;;;;;;;;;4967412;28;99991;-82
2023/05/19 02:55:36;;;;;;;2.50;1.23;;;;;;;;;;4964314;28;98469;-81
2023/05/19 02:58:03;;;;;;;3.17;1.40;;;;;;;;;;4943348;28;100297;-81
2023/05/19 03:00:29;;;;;;;2.63;1.30;;;;;;;;;;4944341;28;99255;-80
2023/05/19 03:03:01;;;;;;;2.80;1.27;;;;;;;;;;4927672;28;99049;-82
2023/05/19 03:05:29;;;;;;;2.65;1.33;;;;;;;;;;4944157;28;102142;-82
2023/05/19 03:07:55;;;;;;;;;;;;;;;;;;4944670;28;99191;-80
2023/05/19 03:10:22;;;;;;;4.20;1.50;;;;;;;;;;4944245;28;107606;-81
2023/05/19 03:12:49;;;;;;;2.95;1.30;;;;;;;;;;4929829;28;100668;-81
2023/05/19 03:15:17;;;;;;;2.85;1.40;;;;;;;;;;4951280;28;99291;-82
2023/05/19 03:17:44;;;;;;;3.50;1.33;;;;;;;;;;4946448;28;100821;-81
2023/05/19 03:20:11;;;;;;;3.38;1.30;;;;;;;;;;4948310;28;99593;-82
2023/05/19 03:22:37;;;;;;;3.58;1.33;;;;;;;;;;4947137;28;98632;-82
2023/05/19 03:25:04;;;;;;;3.13;1.33;;;;;;;;;;4948157;28;100432;-81
2023/05/19 03:27:31;;;;;;;3.80;1.40;;;;;;;;;;4945369;28;101419;-82
2023/05/19 03:29:57;;;;;;;2.17;1.30;;;;;;;;;;4948834;28;97775;-81
2023/05/19 03:32:24;;;;;;;3.13;1.20;;;;;;;;;;4946508;28;100961;-82
2023/05/19 03:34:51;;;;;;;2.92;1.20;;;;;;;;;;4947197;28;100215;-82
2023/05/19 03:37:18;;;;;;;2.25;1.30;;;;;;;;;;4949826;28;99575;-81
2023/05/19 03:39:44;;;;;;;4.47;1.20;;;;;;;;;;4963338;28;102048;-80
2023/05/19 03:42:12;;;;;;;2.85;1.23;;;;;;;;;;4965717;28;98645;-81
2023/05/19 03:44:39;;;;;;;3.78;1.33;;;;;;;;;;4965628;28;100273;-82
2023/05/19 03:47:05;;;;;;;2.33;1.20;;;;;;;;;;4949275;28;100715;-82
2023/05/19 03:49:41;;;;;;;2.63;1.10;;;;;;;;;;4958225;28;99088;-80
2023/05/19 03:52:08;;;;;;;3.45;1.30;;;;;;;;;;4961599;28;98870;-81
2023/05/19 03:54:53;;;;;;;2.80;1.40;;;;;;;;;;4963564;28;102898;-81
2023/05/19 03:57:21;;;;;;;2.05;1.25;;;;;;;;;;4950720;28;99372;-82
2023/05/19 03:59:48;;;;;;;3.97;1.40;;;;;;;;;;4948996;28;101632;-82
2023/05/19 04:02:14;;;;;;;3.70;1.55;;;;;;;;;;4959485;28;99266;-80
2023/05/19 04:04:42;;;;;;;2.58;1.15;;;;;;;;;;4967936;28;98658;-82
2023/05/19 04:07:09;;;;;;;2.70;1.20;;;;;;;;;;4962685;28;101919;-80
2023/05/19 04:09:36;;;;;;;2.75;1.30;;;;;;;;;;4967651;28;98682;-81
2023/05/19 04:12:03;;;;;;;3.05;1.30;;;;;;;;;;4955919;28;98734;-81
2023/05/19 04:14:29;;;;;;;4.32;1.50;;;;;;;;;;4945641;28;101889;-80
2023/05/19 04:16:56;;;;;;;2.33;1.30;;;;;;;;;;4947773;28;99052;-81
2023/05/19 04:19:22;;;;;;;3.33;1.20;;;;;;;;;;4949130;28;100086;-82
2023/05/19 04:21:49;;;;;;;3.10;1.52;;;;;;;;;;4947507;28;98610;-82
2023/05/19 04:24:16;;;;;;;2.63;1.30;;;;;;;;;;4948237;28;98607;-82
2023/05/19 04:26:45;;;;;;;3.03;1.38;;;;;;;;;;4945362;28;103270;-82
2023/05/19 04:29:16;;;;;;;3.00;1.30;;;;;;;;;;4947482;28;99154;-81
2023/05/19 04:31:44;;;;;;;4.18;1.50;;;;;;;;;;4945693;28;101563;-81
2023/05/19 04:34:10;;;;;;;3.28;1.33;;;;;;;;;;4947297;28;99312;-82
2023/05/19 04:36:37;;;;;;;3.60;1.60;;;;;;;;;;4945149;28;98639;-81
2023/05/19 04:39:08;;;;;;;1.33;1.05;;;;;;;;;;4945954;28;101255;-83
2023/05/19 04:41:34;;;;;;;3.78;1.30;;;;;;;;;;4948845;28;101105;-82
2023/05/19 04:44:03;;;;;;;3.53;1.45;;;;;;;;;;4946399;28;102566;-82
2023/05/19 04:46:31;;;;;;;;;;;;;;;;;;4945707;28;100365;-81
2023/05/19 04:49:00;;;;;;;3.50;1.80;;;;;;;;;;4946532;28;98525;-81
2023/05/19 04:51:30;;;;;;;2.88;1.23;;;;;;;;;;4946103;28;101228;-81
2023/05/19 04:53:58;;;;;;;3.53;1.45;;;;;;;;;;4948020;28;101568;-82
2023/05/19 04:56:26;;;;;;;2.95;1.20;;;;;;;;;;4929392;28;99040;-83
2023/05/19 04:58:53;;;;;;;4.10;1.63;;;;;;;;;;4981589;28;105261;-82
2023/05/19 05:01:24;;;;;;;2.53;1.20;;;;;;;;;;4954412;28;99221;-83
2023/05/19 05:03:57;;;;;;;3.45;1.50;;;;;;;;;;4967946;28;98619;-81
2023/05/19 05:06:25;;;;;;;3.83;1.55;;;;;;;;;;4950415;28;100557;-83
2023/05/19 05:08:51;;;;;;;3.92;1.65;;;;;;;;;;4963544;28;97970;-81
2023/05/19 05:11:18;;;;;;;2.92;1.40;;;;;;;;;;4960411;28;100921;-81
2023/05/19 05:13:45;;;;;;;2.78;1.23;;;;;;;;;;4944181;28;101355;-81
2023/05/19 05:16:12;;;;;;;2.95;1.20;;;;;;;;;;4945541;28;99691;-80
2023/05/19 05:18:39;;;;;;;3.42;1.40;;;;;;;;;;4943882;28;101516;-81
2023/05/19 05:21:10;;;;;;;2.75;1.45;;;;;;;;;;4944011;28;101889;-81
2023/05/19 05:23:37;;;;;;;3.35;1.40;;;;;;;;;;4945481;28;98581;-82
2023/05/19 05:26:09;;;;;;;2.72;1.33;;;;;;;;;;4947399;28;101747;-81
2023/05/19 05:28:36;;;;;;;3.50;1.30;;;;;;;;;;4942770;28;98572;-81
2023/05/19 05:31:02;;;;;;;2.30;1.35;;;;;;;;;;4946132;28;98750;-81
2023/05/19 05:33:29;;;;;;;2.90;1.30;;;;;;;;;;4935628;28;100424;-82
2023/05/19 05:35:56;;;;;;;3.20;1.30;;;;;;;;;;4945362;28;98448;-80
2023/05/19 05:38:24;;;;;;;2.83;1.30;;;;;;;;;;4944178;28;101837;-80
2023/05/19 05:40:52;;;;;;;2.55;1.30;;;;;;;;;;4944820;28;100431;-80
2023/05/19 05:43:18;;;;;;;3.42;1.50;;;;;;;;;;4944138;28;98743;-81
2023/05/19 05:45:51;;;;;;;2.67;1.50;;;;;;;;;;4944435;28;101693;-82
2023/05/19 05:48:19;;;;;;;2.83;1.30;;;;;;;;;;4947134;28;101670;-82
2023/05/19 05:50:47;;;;;;;2.58;1.30;;;;;;;;;;4944993;28;101678;-82
2023/05/19 05:53:19;;;;;;;3.05;1.20;;;;;;;;;;4927741;28;101319;-82
2023/05/19 05:55:48;;;;;;;3.63;1.65;;;;;;;;;;4943867;28;99165;-81
2023/05/19 05:58:15;;;;;;;4.85;1.45;;;;;;;;;;4944216;28;101157;-82
2023/05/19 06:00:42;;;;;;;3.78;1.40;;;;;;;;;;4942724;28;101838;-82
2023/05/19 06:03:09;;;;;;;3.70;1.30;;;;;;;;;;4949697;28;99070;-82
2023/05/19 06:05:37;;;;;;;2.50;1.20;;;;;;;;;;4943180;28;100099;-81
2023/05/19 06:08:03;;;;;;;2.95;1.33;;;;;;;;;;4943608;28;101566;-81
2023/05/19 06:10:30;;;;;;;2.13;1.30;;;;;;;;;;4947838;28;98571;-81
2023/05/19 06:12:58;;;;;;;3.22;1.30;;;;;;;;;;4943514;28;101621;-81
2023/05/19 06:15:25;;;;;;;2.72;1.50;;;;;;;;;;4941241;28;99113;-81
2023/05/19 06:17:59;;;;;;;3.10;1.30;;;;;;;;;;4929841;28;101137;-81
2023/05/19 06:20:26;;;;;;;1.63;1.13;;;;;;;;;;4945132;28;99601;-81
2023/05/19 06:22:53;;;;;;;1.88;1.25;;;;;;;;;;4943887;28;97915;-81
2023/05/19 06:25:21;;;;;;;3.47;1.30;;;;;;;;;;4944641;28;100745;-82
2023/05/19 06:27:48;;;;;;;1.70;1.13;;;;;;;;;;4943065;28;101804;-81
2023/05/19 06:30:15;;;;;;;2.58;1.20;;;;;;;;;;4935223;28;99306;-82
2023/05/19 06:32:57;;;;;;;2.08;1.20;;;;;;;;;;4930198;28;105974;-81
2023/05/19 06:35:24;;;;;;;2.72;1.30;;;;;;;;;;4948599;28;98584;-82
2023/05/19 06:37:51;;;;;;;3.10;1.30;;;;;;;;;;4927582;28;101136;-82
2023/05/19 06:40:19;;;;;;;3.88;1.50;;;;;;;;;;4958553;28;100306;-81
2023/05/19 06:42:46;;;;;;;2.53;1.20;;;;;;;;;;4943576;28;98633;-81
2023/05/19 06:45:15;;;;;;;2.80;1.23;;;;;;;;;;4943978;28;102036;-81
2023/05/19 06:47:43;;;;;;;2.78;1.40;;;;;;;;;;4947523;28;99591;-81
2023/05/19 06:50:09;;;;;;;2.58;1.50;;;;;;;;;;4947336;28;98570;-81
2023/05/19 06:52:39;;;;;;;3.90;1.65;;;;;;;;;;4949880;28;100920;-81
2023/05/19 06:55:06;;;;;;;3.55;1.80;;;;;;;;;;4946620;28;99382;-81
2023/05/19 06:57:35;;;;;;;2.75;1.40;;;;;;;;;;4946598;28;102552;-81
2023/05/19 07:00:03;;;;;;;3.55;1.58;;;;;;;;;;4953487;28;99910;-81
2023/05/19 07:02:30;;;;;;;;;;;;;;;;;;4952128;28;98604;-81
2023/05/19 07:04:57;;;;;;;3.20;1.58;;;;;;;;;;4950595;28;122936;-82
2023/05/19 07:07:25;;;;;;;2.40;1.45;;;;;;;;;;4949023;28;102150;-82
2023/05/19 07:09:54;;;;;;;3.38;1.45;;;;;;;;;;4947890;28;98653;-81
2023/05/19 07:12:21;;;;;;;3.75;1.70;;;;;;;;;;4954541;28;99936;-80
2023/05/19 07:14:48;;;;;;;3.83;1.40;;;;;;;;;;4952813;28;105222;-82
2023/05/19 07:17:15;;;;;;;2.63;1.30;;;;;;;;;;4932190;28;99999;-80
2023/05/19 07:19:43;;;;;;;3.85;1.60;;;;;;;;;;4945715;28;102720;-81
2023/05/19 07:22:10;;;;;;;3.55;1.40;;;;;;;;;;4948450;28;98809;-82
2023/05/19 07:24:37;;;;;;;3.60;1.60;;;;;;;;;;4942620;28;101720;-81
2023/05/19 07:27:04;;;;;;;3.88;1.50;;;;;;;;;;4947900;28;99146;-81
2023/05/19 07:29:30;;;;;;;3.50;1.80;;;;;;;;;;4947994;28;98618;-81
2023/05/19 07:31:57;;;;;;;2.50;1.20;;;;;;;;;;4947245;28;98835;-81
2023/05/19 07:34:26;;;;;;;3.63;1.40;;;;;;;;;;4949355;28;99332;-82
2023/05/19 07:36:53;;;;;;;3.35;1.60;;;;;;;;;;4952141;28;97978;-82
2023/05/19 07:39:19;;;;;;;3.08;1.38;;;;;;;;;;4946970;28;99450;-82
2023/05/19 07:41:51;;;;;;;3.05;1.40;;;;;;;;;;4948170;28;98911;-82
2023/05/19 07:44:18;;;;;;;2.60;1.40;;;;;;;;;;4946851;28;101068;-81
2023/05/19 07:46:44;;;;;;;3.13;1.40;;;;;;;;;;4946641;28;100164;-81
2023/05/19 07:49:11;;;;;;;3.00;1.40;;;;;;;;;;4945557;28;99051;-81
2023/05/19 07:51:37;;;;;;;3.35;1.70;;;;;;;;;;4947801;28;98795;-81
2023/05/19 07:54:04;;;;;;;2.85;1.60;;;;;;;;;;4947180;28;99149;-82
2023/05/19 07:56:30;;;;;;;2.72;1.40;;;;;;;;;;4945973;28;98649;-83
2023/05/19 07:58:57;;;;;;;3.38;1.65;;;;;;;;;;4952391;28;99123;-82
2023/05/19 08:01:23;;;;;;;4.00;1.60;;;;;;;;;;4949000;28;97766;-82
2023/05/19 08:03:50;;;;;;;3.15;1.55;;;;;;;;;;4946983;28;99091;-80
2023/05/19 08:06:17;;;;;;;4.03;1.40;;;;;;;;;;4947618;28;99241;-80
2023/05/19 08:08:43;;;;;;;2.45;1.30;;;;;;;;;;4948796;28;101245;-80
2023/05/19 08:11:10;;;;;;;2.42;1.30;;;;;;;;;;4949173;28;99664;-82
2023/05/19 08:13:37;;;;;;;2.13;1.23;;;;;;;;;;4951741;28;99634;-81
2023/05/19 08:16:03;;;;;;;4.47;1.55;;;;;;;;;;4958648;28;98811;-82
2023/05/19 08:18:30;;;;;;;3.03;1.40;;;;;;;;;;4960569;28;99538;-81
2023/05/19 08:20:57;;;;;;;3.70;1.50;;;;;;;;;;4967489;28;99214;-82
2023/05/19 08:23:23;;;;;;;3.67;1.80;;;;;;;;;;4965749;28;98401;-81
2023/05/19 08:25:51;;;;;;;3.97;1.50;;;;;;;;;;4965990;28;97748;-82
2023/05/19 08:28:17;;;;;;;3.85;1.50;;;;;;;;;;4957826;28;98676;-81
2023/05/19 08:30:44;;;;;;;4.43;1.60;;;;;;;;;;4955509;28;98785;-81
2023/05/19 08:33:10;;;;;;;3.00;1.50;;;;;;;;;;4955887;28;99479;-81
2023/05/19 08:35:39;;;;;;;3.78;1.60;;;;;;;;;;4947801;28;98614;-82
2023/05/19 08:38:05;;;;;;;3.17;1.40;;;;;;;;;;4947273;28;98809;-81
2023/05/19 08:40:32;;;;;;;3.22;1.42;;;;;;;;;;4951133;28;99948;-81
2023/05/19 08:42:59;;;;;;;3.30;1.65;;;;;;;;;;4947688;28;98829;-82
2023/05/19 08:45:26;;;;;;;3.13;1.30;;;;;;;;;;4946724;28;99169;-81
2023/05/19 08:47:53;;;;;;;3.05;1.50;;;;;;;;;;4949489;28;98651;-82
2023/05/19 08:50:26;;;;;;;3.65;1.50;;;;;;;;;;4953538;28;98717;-81
2023/05/19 08:52:53;;;;;;;;;;;;;;;;;;4942359;28;99297;-81
2023/05/19 08:55:26;;;;;;;3.92;1.42;;;;;;;;;;4950605;28;103395;-82
2023/05/19 08:57:53;;;;;;;2.63;1.10;;;;;;;;;;4951242;28;99153;-82
2023/05/19 09:00:20;;;;;;;3.30;1.58;;;;;;;;;;4948368;28;99179;-81
2023/05/19 09:02:47;;;;;;;4.45;1.50;;;;;;;;;;4947303;28;100305;-82
2023/05/19 09:05:31;;;;;;;3.70;1.50;;;;;;;;;;4947017;28;99822;-82
2023/05/19 09:08:01;;;;;;;4.55;1.30;;;;;;;;;;4947461;28;98978;-83
2023/05/19 09:10:28;;;;;;;3.83;1.30;;;;;;;;;;4945405;28;99314;-82
2023/05/19 09:12:54;;;;;;;2.80;1.23;;;;;;;;;;4931587;28;107479;-83
2023/05/19 09:15:24;;;;;;;2.25;1.10;;;;;;;;;;4947642;28;97837;-82
2023/05/19 09:18:02;;;;;;;4.15;1.48;;;;;;;;;;4939421;28;98539;-82
2023/05/19 09:20:29;;;;;;;2.72;1.33;;;;;;;;;;4949159;28;99234;-80
2023/05/19 09:22:58;;;;;;;1.85;1.20;;;;;;;;;;4952778;28;99235;-81
2023/05/19 09:25:25;;;;;;;2.45;1.20;;;;;;;;;;4951042;28;99889;-83
2023/05/19 09:27:53;;;;;;;1.95;1.25;;;;;;;;;;4946932;28;98554;-82
2023/05/19 09:30:20;;;;;;;3.50;1.30;;;;;;;;;;4929027;28;101653;-82
2023/05/19 09:32:46;;;;;;;2.67;1.20;;;;;;;;;;4945361;28;99190;-82
2023/05/19 09:35:16;;;;;;;2.20;1.38;;;;;;;;;;4945902;28;98946;-82
2023/05/19 09:37:42;;;;;;;2.83;1.40;;;;;;;;;;4947286;28;98914;-83
2023/05/19 09:40:09;;;;;;;1.30;1.10;;;;;;;;;;4948257;28;98427;-82
2023/05/19 09:42:39;;;;;;;2.35;1.30;;;;;;;;;;4946323;28;99125;-80
2023/05/19 09:45:06;;;;;;;2.88;1.50;;;;;;;;;;4945939;28;99830;-82
2023/05/19 09:47:32;;;;;;;;;;;;;;;;;;4954206;28;100073;-83
2023/05/19 09:49:59;;;;;;;3.38;1.40;;;;;;;;;;4951431;28;104958;-81
2023/05/19 09:52:26;;;;;;;2.17;1.25;;;;;;;;;;4951923;28;99133;-83
2023/05/19 09:54:54;;;;;;;2.63;1.20;;;;;;;;;;4950490;28;98588;-82
2023/05/19 09:57:27;;;;;;;2.55;1.10;;;;;;;;;;4948306;28;98844;-83
2023/05/19 09:59:55;;;;;;;2.50;1.13;;;;;;;;;;4952773;28;99333;-82
2023/05/19 10:02:24;;;;;;;2.63;1.38;;;;;;;;;;4956648;28;98612;-82
2023/05/19 10:04:53;;;;;;;2.30;1.35;;;;;;;;;;4952519;28;100504;-82
2023/05/19 10:07:22;;;;;;;2.58;1.20;;;;;;;;;;4954230;28;98532;-82
2023/05/19 10:09:50;;;;;;;3.72;1.15;;;;;;;;;;4945992;28;98958;-81
2023/05/19 10:12:16;;;;;;;2.15;1.25;;;;;;;;;;4954243;28;99284;-82
2023/05/19 10:14:44;;;;;;;2.33;1.30;;;;;;;;;;4936243;28;99000;-82
2023/05/19 10:17:11;;;;;;;2.65;1.10;;;;;;;;;;4948689;28;99830;-82
2023/05/19 10:19:37;;;;;;;3.28;1.20;;;;;;;;;;4946547;28;99473;-82
2023/05/19 10:22:04;;;;;;;3.92;1.30;;;;;;;;;;4946342;28;98585;-81
2023/05/19 10:24:30;;;;;;;2.92;1.20;;;;;;;;;;4948857;28;98728;-81
2023/05/19 10:27:00;;;;;;;2.70;1.20;;;;;;;;;;4948600;28;99233;-81
2023/05/19 10:29:32;;;;;;;3.53;1.20;;;;;;;;;;4948421;28;97870;-82
2023/05/19 10:32:00;;;;;;;2.45;1.10;;;;;;;;;;4952919;28;99070;-83
2023/05/19 10:34:36;;;;;;;1.83;1.08;;;;;;;;;;4948868;28;98467;-83
2023/05/19 10:37:08;;;;;;;1.40;1.00;;;;;;;;;;4954194;28;103169;-83
2023/05/19 10:39:35;;;;;;;2.33;1.13;;;;;;;;;;4969347;28;99176;-82
2023/05/19 10:42:14;;;;;;;3.17;1.13;;;;;;;;;;4970451;28;98891;-83
2023/05/19 10:44:46;;;;;;;3.65;1.25;;;;;;;;;;4968459;28;101036;-82
2023/05/19 10:47:13;;;;;;;2.92;1.20;;;;;;;;;;4969851;28;99602;-82
2023/05/19 10:49:40;;;;;;;2.40;1.20;;;;;;;;;;4955975;28;98587;-83
2023/05/19 10:52:24;;;;;;;3.70;1.30;;;;;;;;;;4952512;28;99136;-82
2023/05/19 10:54:53;;;;;;;1.55;1.02;;;;;;;;;;4948509;28;98261;-83
2023/05/19 10:57:31;;;;;;;2.95;1.10;;;;;;;;;;4951324;28;98866;-83
2023/05/19 11:00:05;;;;;;;3.03;1.20;;;;;;;;;;4938370;28;99219;-82
2023/05/19 11:02:41;;;;;;;3.00;1.10;;;;;;;;;;4949044;28;99171;-83
2023/05/19 11:05:17;;;;;;;1.77;0.90;;;;;;;;;;4946718;28;101675;-83
2023/05/19 11:07:53;;;;;;;2.47;1.10;;;;;;;;;;4949143;28;99905;-81
2023/05/19 11:10:23;;;;;;;4.25;1.27;;;;;;;;;;4950426;28;101398;-82
2023/05/19 11:12:50;;;;;;;2.58;1.20;;;;;;;;;;4951019;28;98837;-82
2023/05/19 11:15:17;;;;;;;3.50;1.30;;;;;;;;;;4953100;28;99323;-83
2023/05/19 11:17:47;;;;;;;3.15;1.20;;;;;;;;;;4958821;28;99288;-81
2023/05/19 11:20:23;;;;;;;2.88;1.23;;;;;;;;;;4963401;28;98881;-82
2023/05/19 11:23:02;;;;;;;1.55;1.00;;;;;;;;;;4958746;28;99240;-82
2023/05/19 11:25:41;;;;;;;2.22;1.00;;;;;;;;;;4968784;28;98995;-83
2023/05/19 11:28:09;;;;;;;1.63;1.00;;;;;;;;;;4965476;28;99939;-81
2023/05/19 11:30:36;;;;;;;2.03;1.00;;;;;;;;;;4966832;28;98673;-82
2023/05/19 11:33:03;;;;;;;2.35;1.10;;;;;;;;;;4959466;28;101773;-82
2023/05/19 11:35:30;;;;;;;2.40;1.08;;;;;;;;;;4954559;28;101800;-82
2023/05/19 11:38:00;;;;;;;2.83;1.20;;;;;;;;;;4967976;28;99111;-82
2023/05/19 11:40:27;;;;;;;2.10;1.00;;;;;;;;;;4953842;28;99154;-82
2023/05/19 11:42:54;;;;;;;3.08;1.20;;;;;;;;;;4949277;28;98822;-82
2023/05/19 11:45:25;;;;;;;2.42;1.00;;;;;;;;;;4969402;28;99200;-82
2023/05/19 11:47:53;;;;;;;2.03;1.00;;;;;;;;;;4966930;28;100666;-82
2023/05/19 11:50:25;;;;;;;2.15;0.98;;;;;;;;;;4967566;28;98901;-83
2023/05/19 11:52:54;;;;;;;3.72;1.10;;;;;;;;;;4966624;28;99817;-82
2023/05/19 11:55:21;;;;;;;1.65;0.90;;;;;;;;;;4965176;28;99246;-83
2023/05/19 11:57:58;;;;;;;2.25;1.05;;;;;;;;;;4967452;28;98630;-82
2023/05/19 12:00:29;;;;;;;1.92;1.10;;;;;;;;;;4955858;28;100461;-83
2023/05/19 12:02:56;;;;;;;2.63;1.10;;;;;;;;;;4947932;28;98659;-83
2023/05/19 12:05:23;;;;;;;2.25;0.98;;;;;;;;;;4948655;28;98886;-83
2023/05/19 12:07:51;;;;;;;2.05;1.00;;;;;;;;;;4948019;28;99104;-83
2023/05/19 12:10:18;;;;;;;;;;;;;;;;;;4948762;28;97975;-82
2023/05/19 12:12:45;;;;;;;1.63;0.93;;;;;;;;;;4956692;28;106496;-83
2023/05/19 12:15:13;;;;;;;2.60;0.85;;;;;;;;;;4967660;28;98630;-84
2023/05/19 12:17:39;;;;;;;1.95;0.93;;;;;;;;;;4969497;28;98934;-81
2023/05/19 12:20:06;;;;;;;2.15;0.90;;;;;;;;;;4970386;28;98501;-83
2023/05/19 12:22:33;;;;;;;1.13;0.80;;;;;;;;;;4971356;28;99322;-81
2023/05/19 12:25:00;;;;;;;1.10;0.90;;;;;;;;;;4963541;28;98561;-82
2023/05/19 12:27:27;;;;;;;2.05;1.00;;;;;;;;;;4951885;28;99751;-82
2023/05/19 12:29:54;;;;;;;2.05;0.93;;;;;;;;;;4951174;28;98654;-82
2023/05/19 12:32:20;;;;;;;;;;;;;;;;;;4948039;28;101499;-84
2023/05/19 12:34:48;;;;;;;1.83;1.10;;;;;;;;;;4948249;28;98855;-82
2023/05/19 12:37:14;;;;;;;1.98;1.10;;;;;;;;;;4948099;28;98931;-82
2023/05/19 12:39:41;;;;;;;2.10;0.90;;;;;;;;;;4948737;28;101638;-82
2023/05/19 12:42:08;;;;;;;2.30;1.00;;;;;;;;;;4946910;28;99891;-82
2023/05/19 12:44:38;;;;;;;2.13;1.00;;;;;;;;;;4950869;28;98511;-82
2023/05/19 12:47:05;;;;;;;1.52;0.93;;;;;;;;;;4931858;28;98671;-82
2023/05/19 12:49:32;;;;;;;2.42;0.90;;;;;;;;;;4944530;28;98864;-82
2023/05/19 12:52:02;;;;;;;2.55;1.05;;;;;;;;;;4950721;28;98877;-82
2023/05/19 12:54:35;;;;;;;2.78;1.02;;;;;;;;;;4945535;28;100852;-81
2023/05/19 12:57:04;;;;;;;1.65;1.00;;;;;;;;;;4949297;28;98877;-82
2023/05/19 12:59:32;;;;;;;2.95;1.05;;;;;;;;;;4966765;28;99175;-82
2023/05/19 13:02:05;;;;;;;3.10;1.10;;;;;;;;;;4965715;28;100285;-82
2023/05/19 13:04:34;;;;;;;2.03;1.02;;;;;;;;;;4969161;28;98494;-82
2023/05/19 13:07:01;;;;;;;2.03;1.10;;;;;;;;;;4944838;28;100780;-81
2023/05/19 13:09:28;;;;;;;1.27;0.90;;;;;;;;;;4964423;28;98738;-82
2023/05/19 13:11:54;;;;;;;2.33;1.10;;;;;;;;;;4955082;28;98993;-82
2023/05/19 13:14:21;;;;;;;2.60;1.02;;;;;;;;;;4948873;28;99096;-82
2023/05/19 13:16:48;;;;;;;2.92;1.00;;;;;;;;;;4946200;28;98872;-83
2023/05/19 13:19:18;;;;;;;1.67;1.10;;;;;;;;;;4928902;28;101768;-83
2023/05/19 13:21:49;;;;;;;;;;;;;;;;;;4932769;28;99881;-82
2023/05/19 13:24:16;;;;;;;2.05;0.90;;;;;;;;;;4948047;28;104793;-83
2023/05/19 13:26:42;;;;;;;2.55;1.10;;;;;;;;;;4947520;28;98543;-83
2023/05/19 13:29:10;;;;;;;2.20;1.08;;;;;;;;;;4946330;28;98743;-83
2023/05/19 13:31:37;;;;;;;2.17;1.00;;;;;;;;;;4943443;28;99575;-83
2023/05/19 13:34:04;;;;;;;1.63;0.95;;;;;;;;;;4947258;28;99594;-83
2023/05/19 13:36:32;;;;;;;1.58;1.00;;;;;;;;;;4963216;28;98619;-82
2023/05/19 13:38:59;;;;;;;2.83;1.17;;;;;;;;;;4955086;28;99058;-83
2023/05/19 13:41:28;;;;;;;3.40;1.10;;;;;;;;;;4967148;28;99295;-83
2023/05/19 13:43:58;;;;;;;3.85;1.20;;;;;;;;;;4970440;28;98711;-82
2023/05/19 13:46:25;;;;;;;2.67;0.95;;;;;;;;;;4961449;28;101907;-82
2023/05/19 13:49:09;;;;;;;3.30;1.17;;;;;;;;;;4982247;28;104189;-83
2023/05/19 13:51:36;;;;;;;3.00;1.20;;;;;;;;;;4975179;28;98532;-83
2023/05/19 13:54:03;;;;;;;2.50;1.00;;;;;;;;;;4964825;28;102055;-83
2023/05/19 13:56:30;;;;;;;1.67;0.90;;;;;;;;;;4943375;28;99314;-80
2023/05/19 13:58:57;;;;;;;1.92;1.10;;;;;;;;;;4947925;28;99582;-83
2023/05/19 14:01:24;;;;;;;;;;;;;;;;;;4949323;28;99078;-83
2023/05/19 14:03:52;;;;;;;3.78;1.02;;;;;;;;;;4948431;28;100293;-83
2023/05/19 14:06:19;;;;;;;2.08;1.00;;;;;;;;;;4946166;28;98884;-82
2023/05/19 14:08:45;;;;;;;2.35;1.00;;;;;;;;;;4943929;28;99116;-83
2023/05/19 14:11:20;;;;;;;2.45;1.08;;;;;;;;;;4949487;28;98580;-82
2023/05/19 14:13:49;;;;;;;1.65;1.00;;;;;;;;;;4940987;28;98953;-82
2023/05/19 14:16:19;;;;;;;2.30;0.93;;;;;;;;;;4945548;28;98598;-83
2023/05/19 14:18:46;;;;;;;2.25;1.00;;;;;;;;;;4950269;28;100203;-82
2023/05/19 14:21:20;;;;;;;2.95;1.20;;;;;;;;;;4949266;28;100022;-82
2023/05/19 14:23:46;;;;;;;2.38;1.10;;;;;;;;;;4932024;28;98594;-83
2023/05/19 14:26:20;;;;;;;2.15;1.00;;;;;;;;;;4958165;28;98993;-82
2023/05/19 14:28:49;;;;;;;2.28;1.10;;;;;;;;;;4961943;28;99370;-82
2023/05/19 14:31:15;;;;;;;1.27;0.90;;;;;;;;;;4966891;28;98562;-81
2023/05/19 14:33:42;;;;;;;1.75;1.00;;;;;;;;;;4961605;28;100182;-83
2023/05/19 14:36:09;;;;;;;1.25;0.90;;;;;;;;;;4946192;28;98503;-81
2023/05/19 14:38:36;;;;;;;2.22;1.10;;;;;;;;;;4946612;28;98972;-81
2023/05/19 14:41:03;;;;;;;2.15;0.95;;;;;;;;;;4942033;28;99224;-82
2023/05/19 14:43:29;;;;;;;2.30;1.00;;;;;;;;;;4948806;28;98664;-83
2023/05/19 14:45:56;;;;;;;1.95;1.00;;;;;;;;;;4947856;28;99289;-83
2023/05/19 14:48:23;;;;;;;2.33;1.00;;;;;;;;;;4945795;28;99207;-83
2023/05/19 14:50:49;;;;;;;2.30;0.93;;;;;;;;;;4944889;28;98613;-82